Detall de PIREP

Printer-friendly versionPDF version

[2014/02/01 11:22:00]
Flight IATA:CT2304
Pilot Number:012
Company ICAO:CAT
Aircraft Type:F70/A
PAX:79
Aircraft Registration:PFJ
Departing Airport: LIEA
Destination Airport: LIBC
Alternate Airport:LIBD
Online: VATSIM
Route:KOLUS UM603 PNZ UM729 CDC
Flight Level:F290
No Slew and time accel
No pause
Crash detect
Detect pilot in Cockpit between each 30 and 45 minutes
11:22 Zero fuel Weight: 70973 Lbs, Fuel Weight: 13626 Lbs
11:22 VATSIM:LIEA 011050Z 25007KT 210V290 9999 SCT030 14/06 Q1012
11:22 VATSIM:LIBC 011117Z 16025G35KT 4000 -RA BR SCT010 BKN030 13/13 Q1012 RERA RMK VIS MIN 4000
11:22 VOICE CATALONIAN
11:22 Parking Brakes off
11:27 Take-off
11:27 Take off Weight: 84310 Lbs
11:27 Wind: 250º @ 007 Knots Heading: 207º
11:27 POS N40º 37´ 53´´ E008º 17´ 25´´
11:27 Gear Up: 138 Knots
11:27 Flaps:2 at 138 Knots
11:28 Flaps:1 at 152 Knots
11:28 Flaps:0 at 153 Knots
11:40 TOC
11:40 Fuel Weight: 11522 Lb
11:42 Wind:032º@069 Knots Heading: 076º Ground Speed: 354 Knots Altitude 28907 ft
11:57 Wind:032º@027 Knots Heading: 083º Ground Speed: 424 Knots Altitude 28877 ft
12:12 Wind:176º@012 Knots Heading: 129º Ground Speed: 438 Knots Altitude 28904 ft
12:25 TOD
12:25 Fuel Weight: 7697 Lb
12:27 Wind:193º@062 Knots Heading: 137º Ground Speed: 392 Knots Altitude 26801 ft
12:41 Flaps:1 at 200 Knots
12:42 Wind:184º@025 Knots Heading: 032º Ground Speed: 235 Knots Altitude 6932 ft
12:48 Gear Down: 179 Knots
12:48 Flaps:2 at 157 Knots
12:48 Flaps:3 at 135 Knots
12:48 Flaps:4 at 140 Knots
12:51 TouchDown:Rate -122 ft/min Speed: 123 Knots
12:51 Flaps:3 at 46 Knots
12:51 Flaps:0 at 42 Knots
12:51 VATSIM:LIBC 011150Z 17016G26KT 4000 -RA BR SCT010 BKN030 13/13 Q1012 RERA
12:51 Land
12:51 Wind:166º@024 Knots
12:51 Heading: 169º
12:51 Flight Duration: 01:24
12:51 Landing Weight: 77503 Lbs
12:51 POS N38º 59´ 43´´ E017º 04´ 50´´
12:53 Parking brakes on
12:53 Block to Block Duration: 01:31
12:53 Final Fuel: 6457 Lbls
12:53 Spent Fuel: 7169 Lbls
12:53 Flight Length: 496 NM
12:53 TOD Land Length: 117 NM

Exportar CSV

Powered by Drupal - Modified by Danger4k